Main page
METAR-TAF:

METAR-TAF

Airports :

Guernsey Airport

Guernsey,

latitude: 49-26N, longitude: 002-36W, elevation: 102 m

Current weather observation

The report was made 29 minutes ago, at 20:50 UTC
Wind 7 kt from the East/Northeast
Temperature 10°C
Humidity 93%
Pressure 1018 hPa
Visibility: 9000 m

METAR: EGJB 202050Z 07007KT 9000 NSC 10/09 Q1018

Time: 22:19 (21:19 UTC)

Forecast

The report was made 17 minutes ago, at 21:02 UTC
Forecast valid from 20 at 21 UTC to 21 at 06 UTC
Wind 10 kt from the East/Northeast
Visibility: 8000 m
Temporary
from 20 at 21 UTC to 21 at 06 UTC
Visibility: 4000 m
mist
Probability 30% :
Temporary
from 21 at 03 UTC to 21 at 06 UTC
Visibility: 0500 m
Broken clouds at a height lower than 100 ft
fog

TAF: EGJB 202102Z 2021/2106 06010KT 8000 NSC TEMPO 2021/2106 4000 BR PROB30 TEMPO 2103/2106 0500 FG BKN000

Weather observations and forecasts of more than 4000 airports (METAR and TAF reports).

The available stations are represented by yellow and red dots on the map.

Hover mouse over dot to see the name of the station.

Then click to see weather observations and forecasts.

To change the map : click on the green buttons with a black cross to zoom in, on the green button with a dash to zoom out, or on the green arrows for adjacent maps.


METAR-TAF: